Time;durP1;ratioP1;P1;durP2;ratioP2;P2;SDS_P1;SDS_P2;PMS_P1;PMS_P2;Temp;Humidity;BMP_temperature;BMP_pressure;BME280_temperature;BME280_humidity;BME280_pressure;Samples;Min_cycle;Max_cycle;Signal;HPM_P1;HPM_P2
2023/09/12 00:02:04;;;;;;;57.60;2.90;;;;;;;;;;4952919;28;20820;-71
2023/09/12 00:04:31;;;;;;;56.93;3.50;;;;;;;;;;4952473;28;20463;-71
2023/09/12 00:06:59;;;;;;;59.30;5.10;;;;;;;;;;4954878;28;20856;-71
2023/09/12 00:09:27;;;;;;;57.00;2.60;;;;;;;;;;4956376;28;20453;-71
2023/09/12 00:11:54;;;;;;;57.20;3.17;;;;;;;;;;4956461;28;20453;-71
2023/09/12 00:14:22;;;;;;;56.93;2.83;;;;;;;;;;4956711;28;20448;-71
2023/09/12 00:16:51;;;;;;;57.57;3.70;;;;;;;;;;4956052;28;20473;-71
2023/09/12 00:19:18;;;;;;;57.47;3.40;;;;;;;;;;4956305;28;20461;-71
2023/09/12 00:21:45;;;;;;;57.33;2.93;;;;;;;;;;4956248;28;20451;-70
2023/09/12 00:24:14;;;;;;;56.50;2.53;;;;;;;;;;4956190;28;20457;-71
2023/09/12 00:26:41;;;;;;;57.80;3.53;;;;;;;;;;4943951;28;20484;-71
2023/09/12 00:29:08;;;;;;;57.57;3.10;;;;;;;;;;4936897;29;21084;-71
2023/09/12 00:31:35;;;;;;;57.30;3.30;;;;;;;;;;4955738;29;20949;-71
2023/09/12 00:34:02;;;;;;;57.20;2.97;;;;;;;;;;4956117;28;20941;-70
2023/09/12 00:36:29;;;;;;;57.47;3.20;;;;;;;;;;4952648;28;20999;-71
2023/09/12 00:38:56;;;;;;;58.97;4.13;;;;;;;;;;4954614;29;20456;-70
2023/09/12 00:41:24;;;;;;;57.60;3.43;;;;;;;;;;4950602;28;20452;-70
2023/09/12 00:43:51;;;;;;;57.30;3.43;;;;;;;;;;4950685;28;20461;-71
2023/09/12 00:46:20;;;;;;;60.63;4.30;;;;;;;;;;4936079;29;20478;-71
2023/09/12 00:48:48;;;;;;;57.30;3.47;;;;;;;;;;4936538;29;20516;-72
2023/09/12 00:51:15;;;;;;;56.97;2.90;;;;;;;;;;4936526;29;20461;-70
2023/09/12 00:53:42;;;;;;;57.43;3.07;;;;;;;;;;4936507;29;20472;-70
2023/09/12 00:56:09;;;;;;;57.67;3.67;;;;;;;;;;4936284;29;20477;-69
2023/09/12 00:58:38;;;;;;;57.67;2.97;;;;;;;;;;4955553;29;20441;-71
2023/09/12 01:01:05;;;;;;;57.17;2.73;;;;;;;;;;4955541;28;20844;-70
2023/09/12 01:03:33;;;;;;;56.97;2.50;;;;;;;;;;4955370;28;20937;-71
2023/09/12 01:06:01;;;;;;;57.70;3.40;;;;;;;;;;4955041;28;20476;-70
2023/09/12 01:11:31;;;;;;;56.80;2.60;;;;;;;;;;4946483;29;20424;-71
2023/09/12 01:14:00;;;;;;;57.07;2.77;;;;;;;;;;4955347;28;20499;-71
2023/09/12 01:16:27;;;;;;;57.50;3.30;;;;;;;;;;4944822;28;20472;-71
2023/09/12 01:18:54;;;;;;;56.97;3.00;;;;;;;;;;4935506;29;20446;-70
2023/09/12 01:21:36;;;;;;;57.20;2.73;;;;;;;;;;4935916;29;20450;-71
2023/09/12 01:24:08;;;;;;;56.87;2.70;;;;;;;;;;4950385;29;20471;-71
2023/09/12 01:26:42;;;;;;;57.00;2.90;;;;;;;;;;4954664;28;20476;-71
2023/09/12 01:29:13;;;;;;;57.27;2.83;;;;;;;;;;4954971;28;20496;-70
2023/09/12 01:31:40;;;;;;;56.87;3.07;;;;;;;;;;4935803;29;21010;-70
2023/09/12 01:34:11;;;;;;;57.77;3.00;;;;;;;;;;4935709;29;20958;-70
2023/09/12 01:36:38;;;;;;;57.00;2.60;;;;;;;;;;4935344;29;20628;-70
2023/09/12 01:39:05;;;;;;;57.07;3.00;;;;;;;;;;4935502;29;20464;-70
2023/09/12 01:41:33;;;;;;;57.07;2.67;;;;;;;;;;4935452;29;20450;-68
2023/09/12 01:44:01;;;;;;;57.20;2.90;;;;;;;;;;4935542;29;20973;-70
2023/09/12 01:46:31;;;;;;;58.23;3.37;;;;;;;;;;4935198;29;20486;-70
2023/09/12 01:49:00;;;;;;;57.37;2.80;;;;;;;;;;4935800;29;20563;-70
2023/09/12 01:51:27;;;;;;;58.50;3.10;;;;;;;;;;4935273;29;20453;-69
2023/09/12 01:53:54;;;;;;;57.80;4.07;;;;;;;;;;4935901;29;20461;-70
2023/09/12 01:56:22;;;;;;;57.40;3.40;;;;;;;;;;4935253;29;20480;-70
2023/09/12 01:58:49;;;;;;;57.80;4.10;;;;;;;;;;4935487;29;20446;-70
2023/09/12 02:01:16;;;;;;;57.07;3.03;;;;;;;;;;4935558;29;20458;-70
2023/09/12 02:03:45;;;;;;;57.10;2.87;;;;;;;;;;4935395;29;20450;-69
2023/09/12 02:06:12;;;;;;;57.30;3.50;;;;;;;;;;4934773;29;20470;-70
2023/09/12 02:08:39;;;;;;;57.87;3.77;;;;;;;;;;4934974;29;20501;-70
2023/09/12 02:11:06;;;;;;;57.90;4.60;;;;;;;;;;4935234;29;20458;-70
2023/09/12 02:13:33;;;;;;;57.77;3.57;;;;;;;;;;4935350;29;20520;-68
2023/09/12 02:16:00;;;;;;;57.73;3.70;;;;;;;;;;4934689;29;20478;-70
2023/09/12 02:18:27;;;;;;;58.67;4.37;;;;;;;;;;4934684;29;20461;-70
2023/09/12 02:20:56;;;;;;;58.37;4.10;;;;;;;;;;4934957;29;20458;-70
2023/09/12 02:23:23;;;;;;;56.93;2.80;;;;;;;;;;4934763;29;20943;-70
2023/09/12 02:25:50;;;;;;;57.50;2.80;;;;;;;;;;4934571;29;20946;-69
2023/09/12 02:28:17;;;;;;;56.97;2.90;;;;;;;;;;4934602;29;20489;-69
2023/09/12 02:30:44;;;;;;;57.40;3.53;;;;;;;;;;4933969;29;20468;-70
2023/09/12 02:33:11;;;;;;;57.20;3.00;;;;;;;;;;4934893;29;20450;-70
2023/09/12 02:35:38;;;;;;;58.07;3.50;;;;;;;;;;4934292;29;20446;-69
2023/09/12 02:38:07;;;;;;;57.73;3.37;;;;;;;;;;4934542;29;20469;-70
2023/09/12 02:40:34;;;;;;;57.87;3.47;;;;;;;;;;4934459;29;20461;-70
2023/09/12 02:43:01;;;;;;;57.87;2.97;;;;;;;;;;4934508;29;20458;-71
2023/09/12 02:45:28;;;;;;;57.30;3.17;;;;;;;;;;4942212;29;20451;-71
2023/09/12 02:47:55;;;;;;;58.47;3.97;;;;;;;;;;4953321;28;20499;-72
2023/09/12 02:50:22;;;;;;;57.33;2.83;;;;;;;;;;4953689;28;20453;-68
2023/09/12 02:52:49;;;;;;;56.90;2.97;;;;;;;;;;4953722;28;20456;-70
2023/09/12 02:55:18;;;;;;;57.77;3.87;;;;;;;;;;4953405;28;20931;-69
2023/09/12 02:57:45;;;;;;;58.70;3.70;;;;;;;;;;4953391;28;20468;-70
2023/09/12 03:00:13;;;;;;;56.80;2.50;;;;;;;;;;4953496;28;20444;-70
2023/09/12 03:02:40;;;;;;;57.57;3.43;;;;;;;;;;4953167;28;20448;-68
2023/09/12 03:05:07;;;;;;;57.20;3.10;;;;;;;;;;4953227;28;20464;-69
2023/09/12 03:07:35;;;;;;;57.20;3.30;;;;;;;;;;4953005;28;20468;-69
2023/09/12 03:10:02;;;;;;;57.60;3.83;;;;;;;;;;4953232;28;20457;-69
2023/09/12 03:12:30;;;;;;;57.20;3.07;;;;;;;;;;4952186;28;20449;-70
2023/09/12 03:14:57;;;;;;;57.57;3.73;;;;;;;;;;4945612;28;20457;-70
2023/09/12 03:17:25;;;;;;;56.97;2.90;;;;;;;;;;4951861;28;20473;-69
2023/09/12 03:19:52;;;;;;;57.80;3.40;;;;;;;;;;4942129;29;20881;-70
2023/09/12 03:22:19;;;;;;;57.60;3.80;;;;;;;;;;4933892;29;20450;-69
2023/09/12 03:24:46;;;;;;;56.90;2.70;;;;;;;;;;4933859;29;20469;-70
2023/09/12 03:27:13;;;;;;;58.37;3.40;;;;;;;;;;4940591;29;20468;-70
2023/09/12 03:29:41;;;;;;;56.93;2.87;;;;;;;;;;4942123;28;20524;-70
2023/09/12 03:32:08;;;;;;;56.90;2.60;;;;;;;;;;4933799;29;20477;-70
2023/09/12 03:34:35;;;;;;;56.77;3.10;;;;;;;;;;4933554;29;20454;-69
2023/09/12 03:37:03;;;;;;;57.30;3.13;;;;;;;;;;4933406;29;20974;-70
2023/09/12 03:39:30;;;;;;;57.13;3.10;;;;;;;;;;4933531;29;20458;-70
2023/09/12 03:41:57;;;;;;;57.60;3.20;;;;;;;;;;4933311;29;20457;-68
2023/09/12 03:44:24;;;;;;;56.87;2.73;;;;;;;;;;4933444;29;20454;-71
2023/09/12 03:46:52;;;;;;;61.00;3.20;;;;;;;;;;4933238;29;20989;-69
2023/09/12 03:49:19;;;;;;;57.67;2.97;;;;;;;;;;4933631;29;20899;-69
2023/09/12 03:51:46;;;;;;;56.60;2.50;;;;;;;;;;4933731;29;20469;-69
2023/09/12 03:54:14;;;;;;;56.67;2.60;;;;;;;;;;4933660;29;20476;-70
2023/09/12 03:56:41;;;;;;;57.43;3.50;;;;;;;;;;4933194;29;20470;-69
2023/09/12 03:59:08;;;;;;;57.17;2.90;;;;;;;;;;4933494;29;20446;-69
2023/09/12 04:01:35;;;;;;;57.30;3.23;;;;;;;;;;4933598;29;20454;-70
2023/09/12 04:04:03;;;;;;;57.07;2.87;;;;;;;;;;4933444;29;20458;-72
2023/09/12 04:06:30;;;;;;;57.80;3.00;;;;;;;;;;4933079;29;20846;-69
2023/09/12 04:08:57;;;;;;;56.97;3.13;;;;;;;;;;4933484;29;20494;-72
2023/09/12 04:11:24;;;;;;;58.03;3.53;;;;;;;;;;4933118;29;20450;-70
2023/09/12 04:13:51;;;;;;;56.77;2.57;;;;;;;;;;4933561;29;20449;-70
2023/09/12 04:16:18;;;;;;;57.40;3.30;;;;;;;;;;4933005;29;20477;-70
2023/09/12 04:18:45;;;;;;;57.50;3.33;;;;;;;;;;4933395;29;20453;-70
2023/09/12 04:21:14;;;;;;;57.30;3.57;;;;;;;;;;4933417;29;20461;-69
2023/09/12 04:23:41;;;;;;;56.87;2.70;;;;;;;;;;4949731;29;20452;-70
2023/09/12 04:26:08;;;;;;;57.10;2.80;;;;;;;;;;4951931;28;21040;-70
2023/09/12 04:28:35;;;;;;;57.00;2.73;;;;;;;;;;4952419;28;20861;-69
2023/09/12 04:31:03;;;;;;;57.67;4.50;;;;;;;;;;4952690;28;20456;-69
2023/09/12 04:33:30;;;;;;;57.40;3.60;;;;;;;;;;4952414;28;20845;-69
2023/09/12 04:35:59;;;;;;;56.97;2.87;;;;;;;;;;4952038;28;20464;-70
2023/09/12 04:38:27;;;;;;;57.10;3.00;;;;;;;;;;4952146;28;20460;-70
2023/09/12 04:40:55;;;;;;;57.90;3.83;;;;;;;;;;4952548;28;20453;-69
2023/09/12 04:43:22;;;;;;;58.17;3.93;;;;;;;;;;4952429;28;20459;-69
2023/09/12 04:45:49;;;;;;;56.80;2.70;;;;;;;;;;4932867;29;20967;-69
2023/09/12 04:48:16;;;;;;;57.97;3.90;;;;;;;;;;4932793;29;20453;-69
2023/09/12 04:50:44;;;;;;;56.57;2.90;;;;;;;;;;4933561;29;20464;-70
2023/09/12 04:53:11;;;;;;;57.83;4.10;;;;;;;;;;4933973;29;20453;-69
2023/09/12 04:55:39;;;;;;;56.90;3.00;;;;;;;;;;4936250;29;20465;-70
2023/09/12 04:58:07;;;;;;;57.20;2.90;;;;;;;;;;4936476;29;20450;-68
2023/09/12 05:00:34;;;;;;;57.23;2.87;;;;;;;;;;4936566;29;20822;-69
2023/09/12 05:03:03;;;;;;;57.40;2.90;;;;;;;;;;4936541;29;20456;-70
2023/09/12 05:05:30;;;;;;;57.03;3.00;;;;;;;;;;4936086;29;20863;-69
2023/09/12 05:07:57;;;;;;;57.87;3.10;;;;;;;;;;4936299;29;20841;-70
2023/09/12 05:10:24;;;;;;;57.43;3.30;;;;;;;;;;4936885;29;20501;-69
2023/09/12 05:12:53;;;;;;;57.20;3.30;;;;;;;;;;4954423;29;20972;-70
2023/09/12 05:15:20;;;;;;;57.10;3.27;;;;;;;;;;4947481;28;20820;-70
2023/09/12 05:17:47;;;;;;;56.80;3.27;;;;;;;;;;4936310;28;20492;-69
2023/09/12 05:20:14;;;;;;;57.97;4.37;;;;;;;;;;4936012;29;20449;-70
2023/09/12 05:22:41;;;;;;;58.57;4.13;;;;;;;;;;4936184;29;20449;-70
2023/09/12 05:25:09;;;;;;;56.80;3.00;;;;;;;;;;4936131;29;20450;-70
2023/09/12 05:27:36;;;;;;;56.77;2.90;;;;;;;;;;4935706;29;20982;-70
2023/09/12 05:30:04;;;;;;;59.00;5.10;;;;;;;;;;4941038;29;20492;-70
2023/09/12 05:32:32;;;;;;;60.20;3.10;;;;;;;;;;4954935;28;20449;-70
2023/09/12 05:34:59;;;;;;;56.87;2.80;;;;;;;;;;4955309;28;20449;-70
2023/09/12 05:37:26;;;;;;;57.23;3.37;;;;;;;;;;4954765;28;20471;-70
2023/09/12 05:39:53;;;;;;;57.07;2.93;;;;;;;;;;4954979;28;20939;-70
2023/09/12 05:42:22;;;;;;;56.70;2.67;;;;;;;;;;4954791;28;20612;-70
2023/09/12 05:44:50;;;;;;;57.20;2.90;;;;;;;;;;4954607;28;20453;-70
2023/09/12 05:47:19;;;;;;;56.60;2.77;;;;;;;;;;4954167;28;20471;-69
2023/09/12 05:49:46;;;;;;;58.17;3.93;;;;;;;;;;4954665;28;20500;-70
2023/09/12 05:52:13;;;;;;;57.07;3.23;;;;;;;;;;4954665;28;20453;-69
2023/09/12 05:54:41;;;;;;;57.93;3.83;;;;;;;;;;4954375;28;20445;-70
2023/09/12 05:57:08;;;;;;;56.87;2.57;;;;;;;;;;4954218;28;20469;-69
2023/09/12 05:59:38;;;;;;;56.87;3.00;;;;;;;;;;4954476;28;20445;-71
2023/09/12 06:02:05;;;;;;;56.57;2.73;;;;;;;;;;4954561;28;20503;-71
2023/09/12 06:04:34;;;;;;;59.10;3.50;;;;;;;;;;4954213;28;20449;-71
2023/09/12 06:07:02;;;;;;;57.07;3.40;;;;;;;;;;4954176;28;20468;-70
2023/09/12 06:09:29;;;;;;;58.20;3.47;;;;;;;;;;4954129;28;20497;-71
2023/09/12 06:11:56;;;;;;;57.60;3.20;;;;;;;;;;4954279;28;20461;-70
2023/09/12 06:14:24;;;;;;;57.20;3.47;;;;;;;;;;4954077;28;20452;-70
2023/09/12 06:16:51;;;;;;;56.97;2.90;;;;;;;;;;4953953;28;20475;-71
2023/09/12 06:19:19;;;;;;;56.90;3.20;;;;;;;;;;4954304;28;20455;-71
2023/09/12 06:21:48;;;;;;;57.80;4.53;;;;;;;;;;4954090;28;20468;-70
2023/09/12 06:24:16;;;;;;;57.10;3.33;;;;;;;;;;4954103;28;20471;-71
2023/09/12 06:26:43;;;;;;;57.60;2.73;;;;;;;;;;4953584;28;20473;-71
2023/09/12 06:29:10;;;;;;;56.77;3.07;;;;;;;;;;4953855;28;20505;-71
2023/09/12 06:31:37;;;;;;;56.97;2.87;;;;;;;;;;4954062;28;20449;-71
2023/09/12 06:34:04;;;;;;;56.90;3.10;;;;;;;;;;4953755;28;20960;-69
2023/09/12 06:36:31;;;;;;;57.20;2.97;;;;;;;;;;4953412;28;20984;-71
2023/09/12 06:39:00;;;;;;;57.50;3.50;;;;;;;;;;4946770;28;20464;-69
2023/09/12 06:41:28;;;;;;;57.73;3.43;;;;;;;;;;4933771;29;20448;-71
2023/09/12 06:43:56;;;;;;;57.37;2.77;;;;;;;;;;4934357;29;20458;-70
2023/09/12 06:46:23;;;;;;;57.00;3.27;;;;;;;;;;4933839;29;20477;-70
2023/09/12 06:48:51;;;;;;;56.50;2.60;;;;;;;;;;4933871;29;20446;-69
2023/09/12 06:51:18;;;;;;;56.70;2.90;;;;;;;;;;4934001;29;20453;-70
2023/09/12 06:53:45;;;;;;;57.23;2.97;;;;;;;;;;4934208;29;20480;-70
2023/09/12 06:56:14;;;;;;;57.27;3.27;;;;;;;;;;4933366;29;20478;-70
2023/09/12 06:58:41;;;;;;;57.13;2.63;;;;;;;;;;4934234;29;20456;-69
2023/09/12 07:01:08;;;;;;;56.60;2.53;;;;;;;;;;4934309;29;20442;-70
2023/09/12 07:03:36;;;;;;;56.80;2.40;;;;;;;;;;4934131;29;20538;-70
2023/09/12 07:06:03;;;;;;;57.47;3.77;;;;;;;;;;4933871;29;20550;-71
2023/09/12 07:08:30;;;;;;;57.80;3.90;;;;;;;;;;4933993;29;20831;-70
2023/09/12 07:10:58;;;;;;;58.20;3.37;;;;;;;;;;4937120;29;20489;-71
2023/09/12 07:13:26;;;;;;;56.77;2.80;;;;;;;;;;4953460;28;20895;-70
2023/09/12 07:15:54;;;;;;;58.23;3.60;;;;;;;;;;4940003;28;20450;-67
2023/09/12 07:18:21;;;;;;;57.93;3.50;;;;;;;;;;4948504;29;20467;-68
2023/09/12 07:20:48;;;;;;;58.07;3.73;;;;;;;;;;4952744;28;20816;-68
2023/09/12 07:23:15;;;;;;;57.70;4.63;;;;;;;;;;4939069;28;20460;-68
2023/09/12 07:25:42;;;;;;;57.00;2.70;;;;;;;;;;4941432;29;20450;-68
2023/09/12 07:28:10;;;;;;;56.80;2.53;;;;;;;;;;4946345;29;20453;-69
2023/09/12 07:30:39;;;;;;;57.87;3.30;;;;;;;;;;4936886;28;20493;-68
2023/09/12 07:33:06;;;;;;;58.30;4.33;;;;;;;;;;4944751;28;20459;-68
2023/09/12 07:35:33;;;;;;;56.90;2.70;;;;;;;;;;4935899;28;20454;-70
2023/09/12 07:38:00;;;;;;;57.27;3.27;;;;;;;;;;4934461;29;20482;-69
2023/09/12 07:40:28;;;;;;;58.07;3.50;;;;;;;;;;4948927;29;20847;-68
2023/09/12 07:42:56;;;;;;;58.40;3.23;;;;;;;;;;4945787;28;20453;-69
2023/09/12 07:45:23;;;;;;;57.20;3.50;;;;;;;;;;4952862;28;20540;-69
2023/09/12 07:47:51;;;;;;;56.50;2.47;;;;;;;;;;4952383;28;20514;-69
2023/09/12 07:50:18;;;;;;;57.67;2.97;;;;;;;;;;4952551;28;20492;-69
2023/09/12 07:52:45;;;;;;;57.67;3.80;;;;;;;;;;4942854;28;20468;-72
2023/09/12 07:55:13;;;;;;;57.00;2.73;;;;;;;;;;4933405;29;20799;-71
2023/09/12 07:57:40;;;;;;;60.13;3.20;;;;;;;;;;4932970;29;20473;-72
2023/09/12 08:00:10;;;;;;;57.20;2.90;;;;;;;;;;4945920;29;20445;-71
2023/09/12 08:02:37;;;;;;;57.30;3.07;;;;;;;;;;4952278;28;20448;-71
2023/09/12 08:05:07;;;;;;;57.87;2.83;;;;;;;;;;4952609;28;20448;-71
2023/09/12 08:07:34;;;;;;;58.10;4.10;;;;;;;;;;4952241;28;20901;-69
2023/09/12 08:10:01;;;;;;;56.43;2.70;;;;;;;;;;4952517;28;20507;-70
2023/09/12 08:12:28;;;;;;;57.97;3.80;;;;;;;;;;4952679;28;20449;-70
2023/09/12 08:14:56;;;;;;;57.90;3.63;;;;;;;;;;4952187;28;20459;-71
2023/09/12 08:17:23;;;;;;;58.10;3.60;;;;;;;;;;4951709;28;20469;-71
2023/09/12 08:19:50;;;;;;;56.90;2.90;;;;;;;;;;4952506;28;20508;-69
2023/09/12 08:22:19;;;;;;;57.70;3.73;;;;;;;;;;4952343;28;20448;-70
2023/09/12 08:24:46;;;;;;;57.30;2.77;;;;;;;;;;4952198;28;20487;-72
2023/09/12 08:27:13;;;;;;;57.37;2.90;;;;;;;;;;4951996;28;20475;-72
2023/09/12 08:29:41;;;;;;;58.40;3.13;;;;;;;;;;4955436;28;20484;-72
2023/09/12 08:32:08;;;;;;;57.00;3.00;;;;;;;;;;4956316;28;20507;-71
2023/09/12 08:34:35;;;;;;;57.10;2.77;;;;;;;;;;4955880;28;20461;-71
2023/09/12 08:37:02;;;;;;;57.40;3.13;;;;;;;;;;4955117;28;20472;-72
2023/09/12 08:39:42;;;;;;;57.20;3.20;;;;;;;;;;4955567;28;20456;-72
2023/09/12 08:42:12;;;;;;;57.00;3.17;;;;;;;;;;4955767;28;20445;-71
2023/09/12 08:44:40;;;;;;;57.47;3.57;;;;;;;;;;4955622;28;20925;-72
2023/09/12 08:47:09;;;;;;;57.40;3.30;;;;;;;;;;4955425;28;20476;-71
2023/09/12 08:49:36;;;;;;;57.73;3.03;;;;;;;;;;4955618;28;20937;-70
2023/09/12 08:52:03;;;;;;;56.80;2.63;;;;;;;;;;4955553;28;20824;-71
2023/09/12 08:54:32;;;;;;;58.47;3.27;;;;;;;;;;4955619;28;20455;-70
2023/09/12 08:56:59;;;;;;;57.50;3.43;;;;;;;;;;4954534;28;20565;-71
2023/09/12 08:59:27;;;;;;;59.20;3.30;;;;;;;;;;4955624;28;20449;-71
2023/09/12 09:01:55;;;;;;;57.30;3.10;;;;;;;;;;4955639;28;20441;-71
2023/09/12 09:04:23;;;;;;;56.90;2.83;;;;;;;;;;4955417;28;20465;-70
2023/09/12 09:06:51;;;;;;;60.10;3.00;;;;;;;;;;4954844;28;20475;-71
2023/09/12 09:09:18;;;;;;;56.73;3.00;;;;;;;;;;4955154;28;20459;-71
2023/09/12 09:11:48;;;;;;;58.03;2.83;;;;;;;;;;4954603;28;20500;-70
2023/09/12 09:14:15;;;;;;;57.03;3.10;;;;;;;;;;4955140;28;20449;-71
2023/09/12 09:16:42;;;;;;;59.57;2.77;;;;;;;;;;4952683;28;20486;-71
2023/09/12 09:19:10;;;;;;;56.97;2.70;;;;;;;;;;4943141;28;20460;-71
2023/09/12 09:21:39;;;;;;;57.53;3.37;;;;;;;;;;4935712;29;20457;-69
2023/09/12 09:24:07;;;;;;;56.57;2.70;;;;;;;;;;4935830;29;20493;-70
2023/09/12 09:26:44;;;;;;;57.20;2.87;;;;;;;;;;4935522;29;20473;-70
2023/09/12 09:29:15;;;;;;;56.90;3.33;;;;;;;;;;4935727;29;20456;-71
2023/09/12 09:31:42;;;;;;;57.20;2.83;;;;;;;;;;4952061;29;20488;-70
2023/09/12 09:34:13;;;;;;;57.30;3.13;;;;;;;;;;4954799;28;20453;-71
2023/09/12 09:36:43;;;;;;;58.00;3.77;;;;;;;;;;4954163;28;20527;-70
2023/09/12 09:39:10;;;;;;;57.53;3.00;;;;;;;;;;4954158;28;20953;-69
2023/09/12 09:41:38;;;;;;;57.17;3.43;;;;;;;;;;4954723;28;20945;-71
2023/09/12 09:44:06;;;;;;;56.90;3.20;;;;;;;;;;4954800;28;20452;-70
2023/09/12 09:46:34;;;;;;;56.87;2.90;;;;;;;;;;4954261;28;21122;-71
2023/09/12 09:49:01;;;;;;;56.77;2.97;;;;;;;;;;4954483;28;20441;-72
2023/09/12 09:51:29;;;;;;;57.17;3.50;;;;;;;;;;4954439;28;20495;-70
2023/09/12 09:53:58;;;;;;;57.13;3.10;;;;;;;;;;4954456;28;21032;-70
2023/09/12 09:56:25;;;;;;;57.03;2.87;;;;;;;;;;4954040;28;20480;-71
2023/09/12 09:58:53;;;;;;;58.60;2.70;;;;;;;;;;4954444;28;20456;-72
2023/09/12 10:01:20;;;;;;;56.67;2.53;;;;;;;;;;4954342;28;20461;-72
2023/09/12 10:03:49;;;;;;;56.77;2.60;;;;;;;;;;4954453;28;20457;-72
2023/09/12 10:06:17;;;;;;;57.73;4.23;;;;;;;;;;4954165;28;20480;-72
2023/09/12 10:08:46;;;;;;;56.23;2.60;;;;;;;;;;4954569;28;20453;-72
2023/09/12 10:11:13;;;;;;;56.90;2.80;;;;;;;;;;4954164;28;21012;-71
2023/09/12 10:13:42;;;;;;;56.77;3.17;;;;;;;;;;4954165;28;20453;-71
2023/09/12 10:16:10;;;;;;;57.50;3.47;;;;;;;;;;4953700;28;20476;-72
2023/09/12 10:18:39;;;;;;;56.70;3.50;;;;;;;;;;4954228;28;20457;-71
2023/09/12 10:21:12;;;;;;;55.77;2.73;;;;;;;;;;4948864;28;20449;-72
2023/09/12 10:23:41;;;;;;;56.67;3.23;;;;;;;;;;4951725;29;20453;-71
2023/09/12 10:26:11;;;;;;;55.97;3.30;;;;;;;;;;4953594;28;20976;-73
2023/09/12 10:28:38;;;;;;;56.10;3.20;;;;;;;;;;4953958;28;20456;-72
2023/09/12 10:31:06;;;;;;;55.90;3.40;;;;;;;;;;4953853;28;20489;-72
2023/09/12 10:33:33;;;;;;;55.50;2.80;;;;;;;;;;4954084;28;20457;-72
2023/09/12 10:36:01;;;;;;;56.20;3.17;;;;;;;;;;4953423;28;20472;-73
2023/09/12 10:38:30;;;;;;;55.87;3.63;;;;;;;;;;4953696;28;20552;-72
2023/09/12 10:40:57;;;;;;;55.27;2.70;;;;;;;;;;4953544;28;20459;-72
2023/09/12 10:43:25;;;;;;;56.20;3.70;;;;;;;;;;4953636;28;20988;-72
2023/09/12 10:45:53;;;;;;;55.20;2.90;;;;;;;;;;4953411;28;20445;-73
2023/09/12 10:48:21;;;;;;;55.67;3.00;;;;;;;;;;4953761;28;20539;-73
2023/09/12 10:50:48;;;;;;;55.23;3.67;;;;;;;;;;4952620;28;20495;-73
2023/09/12 10:53:17;;;;;;;55.43;2.93;;;;;;;;;;4953544;28;20449;-71
2023/09/12 10:55:59;;;;;;;55.40;2.70;;;;;;;;;;4953051;28;20464;-73
2023/09/12 10:58:26;;;;;;;55.67;3.37;;;;;;;;;;4953657;28;20455;-73
2023/09/12 11:01:12;;;;;;;55.67;3.40;;;;;;;;;;4953676;28;20460;-73
2023/09/12 11:03:40;;;;;;;55.00;2.93;;;;;;;;;;4953299;28;20460;-73
2023/09/12 11:06:20;;;;;;;55.30;3.20;;;;;;;;;;4933709;29;21011;-73
2023/09/12 11:09:08;;;;;;;54.57;2.90;;;;;;;;;;4934288;29;20512;-74
2023/09/12 11:11:36;;;;;;;54.30;2.57;;;;;;;;;;4933923;29;20892;-73
2023/09/12 11:14:06;;;;;;;54.70;2.60;;;;;;;;;;4934105;29;20466;-74
2023/09/12 11:16:35;;;;;;;54.90;2.83;;;;;;;;;;4933812;29;20481;-72
2023/09/12 11:19:15;;;;;;;54.77;2.73;;;;;;;;;;4933767;29;21001;-72
2023/09/12 11:21:42;;;;;;;55.40;3.20;;;;;;;;;;4934074;29;20449;-72
2023/09/12 11:24:09;;;;;;;54.53;2.93;;;;;;;;;;4934105;29;20484;-72
2023/09/12 11:26:53;;;;;;;55.27;3.03;;;;;;;;;;4933538;29;20473;-72
2023/09/12 11:29:21;;;;;;;55.13;2.67;;;;;;;;;;4934100;29;20462;-73
2023/09/12 11:31:53;;;;;;;54.97;3.07;;;;;;;;;;4933613;29;20545;-73
2023/09/12 11:34:20;;;;;;;54.50;2.93;;;;;;;;;;4933913;29;20458;-72
2023/09/12 11:36:47;;;;;;;53.60;2.70;;;;;;;;;;4933407;29;20473;-72
2023/09/12 11:39:24;;;;;;;54.17;3.53;;;;;;;;;;4944378;29;20476;-72
2023/09/12 11:41:53;;;;;;;54.50;2.60;;;;;;;;;;4951762;28;20932;-72
2023/09/12 11:44:21;;;;;;;54.60;2.63;;;;;;;;;;4938356;29;20548;-72
2023/09/12 11:46:49;;;;;;;54.97;3.00;;;;;;;;;;4943940;28;20691;-73
2023/09/12 11:49:17;;;;;;;54.90;2.97;;;;;;;;;;4933668;29;20453;-73
2023/09/12 11:51:50;;;;;;;54.50;2.87;;;;;;;;;;4933266;29;20489;-73
2023/09/12 11:54:18;;;;;;;54.70;2.50;;;;;;;;;;4933700;29;20456;-73
2023/09/12 11:56:46;;;;;;;54.90;2.70;;;;;;;;;;4933264;29;20488;-72
2023/09/12 11:59:14;;;;;;;54.60;2.80;;;;;;;;;;4933665;29;20560;-72
2023/09/12 12:01:42;;;;;;;54.60;2.47;;;;;;;;;;4934416;29;20441;-73
2023/09/12 12:04:09;;;;;;;54.80;2.40;;;;;;;;;;4956286;29;20442;-73
2023/09/12 12:06:36;;;;;;;54.57;2.77;;;;;;;;;;4956099;28;20496;-72
2023/09/12 12:09:04;;;;;;;54.83;2.80;;;;;;;;;;4956467;28;20949;-72
2023/09/12 12:11:32;;;;;;;54.70;3.00;;;;;;;;;;4956351;28;20492;-72
2023/09/12 12:13:59;;;;;;;54.47;2.93;;;;;;;;;;4956381;28;20947;-72
2023/09/12 12:16:28;;;;;;;54.10;2.50;;;;;;;;;;4956076;28;20472;-72
2023/09/12 12:18:57;;;;;;;54.40;2.90;;;;;;;;;;4956097;28;20455;-72
2023/09/12 12:21:24;;;;;;;54.90;2.80;;;;;;;;;;4956624;28;20498;-72
2023/09/12 12:24:00;;;;;;;55.37;2.47;;;;;;;;;;4956358;28;20456;-72
2023/09/12 12:26:27;;;;;;;54.60;3.20;;;;;;;;;;4955754;28;20600;-72
2023/09/12 12:28:54;;;;;;;54.10;2.43;;;;;;;;;;4956097;28;20475;-73
2023/09/12 12:31:24;;;;;;;55.03;2.97;;;;;;;;;;4955975;28;20489;-73
2023/09/12 12:33:54;;;;;;;54.07;2.50;;;;;;;;;;4956364;28;20502;-72
2023/09/12 12:36:21;;;;;;;54.53;2.40;;;;;;;;;;4955750;28;20468;-72
2023/09/12 12:38:49;;;;;;;54.60;3.20;;;;;;;;;;4955665;28;20456;-73
2023/09/12 12:41:17;;;;;;;54.53;2.80;;;;;;;;;;4955907;28;20452;-73
2023/09/12 12:43:44;;;;;;;54.60;2.93;;;;;;;;;;4955850;28;20455;-72
2023/09/12 12:46:12;;;;;;;54.23;2.90;;;;;;;;;;4955247;28;20481;-73
2023/09/12 12:48:43;;;;;;;54.73;2.80;;;;;;;;;;4955920;28;20453;-73
2023/09/12 12:51:19;;;;;;;55.30;3.40;;;;;;;;;;4955622;28;20488;-73
2023/09/12 12:53:47;;;;;;;54.10;2.50;;;;;;;;;;4955727;28;20452;-72
2023/09/12 12:56:19;;;;;;;54.83;2.93;;;;;;;;;;4955213;28;20552;-72
2023/09/12 12:58:50;;;;;;;54.87;3.07;;;;;;;;;;4955992;28;21215;-72
2023/09/12 13:01:17;;;;;;;55.03;2.90;;;;;;;;;;4955494;28;20453;-73
2023/09/12 13:03:44;;;;;;;55.17;3.00;;;;;;;;;;4955610;28;20471;-73
2023/09/12 13:06:14;;;;;;;54.67;2.33;;;;;;;;;;4955157;28;20575;-72
2023/09/12 13:08:43;;;;;;;54.47;2.40;;;;;;;;;;4955393;28;20535;-73
2023/09/12 13:11:10;;;;;;;55.27;2.67;;;;;;;;;;4955162;28;20496;-73
2023/09/12 13:13:37;;;;;;;55.30;2.67;;;;;;;;;;4954510;28;20475;-73
2023/09/12 13:16:05;;;;;;;56.00;3.30;;;;;;;;;;4954698;28;21009;-73
2023/09/12 13:18:32;;;;;;;56.07;3.10;;;;;;;;;;4955332;28;20520;-73
2023/09/12 13:20:59;;;;;;;54.97;2.27;;;;;;;;;;4955235;28;20453;-74
2023/09/12 13:23:27;;;;;;;56.07;2.77;;;;;;;;;;4955066;28;20457;-72
2023/09/12 13:25:55;;;;;;;55.80;2.50;;;;;;;;;;4955053;28;20449;-74
2023/09/12 13:28:25;;;;;;;56.50;3.17;;;;;;;;;;4955510;28;20449;-74
2023/09/12 13:30:52;;;;;;;55.63;2.47;;;;;;;;;;4954963;28;20453;-73
2023/09/12 13:33:19;;;;;;;56.73;2.90;;;;;;;;;;4954939;28;20449;-73
2023/09/12 13:35:46;;;;;;;56.47;2.83;;;;;;;;;;4954821;28;20464;-73
2023/09/12 13:38:13;;;;;;;56.07;2.50;;;;;;;;;;4954481;28;20492;-73
2023/09/12 13:40:41;;;;;;;56.37;2.70;;;;;;;;;;4955125;28;20453;-74
2023/09/12 13:43:10;;;;;;;55.70;2.20;;;;;;;;;;4947022;28;20449;-74
2023/09/12 13:45:37;;;;;;;56.83;2.77;;;;;;;;;;4946720;28;20456;-73
2023/09/12 13:48:05;;;;;;;57.07;2.53;;;;;;;;;;4952515;28;20995;-74
2023/09/12 13:50:32;;;;;;;56.07;2.77;;;;;;;;;;4935433;29;20516;-74
2023/09/12 13:53:00;;;;;;;56.77;2.67;;;;;;;;;;4935563;29;20493;-73
2023/09/12 13:55:27;;;;;;;55.87;2.60;;;;;;;;;;4935531;29;20950;-71
2023/09/12 13:57:54;;;;;;;55.47;2.47;;;;;;;;;;4935375;29;20476;-72
2023/09/12 14:00:23;;;;;;;56.30;3.00;;;;;;;;;;4935272;29;20456;-71
2023/09/12 14:02:50;;;;;;;55.27;2.37;;;;;;;;;;4935300;29;20454;-72
2023/09/12 14:05:17;;;;;;;56.00;3.17;;;;;;;;;;4935128;29;20450;-71
2023/09/12 14:07:44;;;;;;;55.20;2.77;;;;;;;;;;4946742;29;21014;-72
2023/09/12 14:10:12;;;;;;;55.50;2.60;;;;;;;;;;4954411;28;20544;-72
2023/09/12 14:12:39;;;;;;;55.80;2.80;;;;;;;;;;4954370;28;20871;-72
2023/09/12 14:15:06;;;;;;;56.60;4.10;;;;;;;;;;4954208;28;20449;-72
2023/09/12 14:17:35;;;;;;;55.10;2.83;;;;;;;;;;4953732;28;20499;-73
2023/09/12 14:20:02;;;;;;;55.57;3.50;;;;;;;;;;4953937;28;20456;-73
2023/09/12 14:22:29;;;;;;;54.90;2.83;;;;;;;;;;4954278;28;20830;-74
2023/09/12 14:24:56;;;;;;;55.37;2.60;;;;;;;;;;4954000;28;20456;-73
2023/09/12 14:27:23;;;;;;;55.40;3.13;;;;;;;;;;4944219;28;20856;-73
2023/09/12 14:29:50;;;;;;;55.90;3.50;;;;;;;;;;4940018;28;20450;-73
2023/09/12 14:32:18;;;;;;;55.27;2.80;;;;;;;;;;4950240;28;21113;-73
2023/09/12 14:34:46;;;;;;;55.97;3.17;;;;;;;;;;4949568;29;20483;-70
2023/09/12 14:37:13;;;;;;;55.67;2.63;;;;;;;;;;4934836;28;20478;-70
2023/09/12 14:39:40;;;;;;;55.77;2.53;;;;;;;;;;4941183;29;20462;-71